sensor_id;sensor_type;location;lat;lon;timestamp;P1;durP1;ratioP1;P2;durP2;ratioP2
64595;SDS011;51003;51.628;6.670;2024-01-16T10:41:58;21.65;;;11.57;;
64595;SDS011;51003;51.628;6.670;2024-01-16T10:44:24;11.30;;;7.30;;
64595;SDS011;51003;51.628;6.670;2024-01-16T10:46:50;6.67;;;3.83;;
64595;SDS011;51003;51.628;6.670;2024-01-16T10:49:16;9.50;;;5.60;;
64595;SDS011;51003;51.628;6.670;2024-01-16T10:55:45;3.97;;;3.55;;
64595;SDS011;51003;51.628;6.670;2024-01-16T10:58:18;10.07;;;4.20;;
64595;SDS011;51003;51.628;6.670;2024-01-16T11:04:56;8.20;;;4.60;;
64595;SDS011;51003;51.628;6.670;2024-01-16T11:07:22;8.33;;;4.50;;
64595;SDS011;51003;51.628;6.670;2024-01-16T11:09:49;9.10;;;3.77;;
64595;SDS011;51003;51.628;6.670;2024-01-16T11:12:15;6.97;;;3.87;;
64595;SDS011;51003;51.628;6.670;2024-01-16T11:14:43;7.60;;;3.90;;
64595;SDS011;51003;51.628;6.670;2024-01-16T11:17:10;6.80;;;3.70;;
64595;SDS011;51003;51.628;6.670;2024-01-16T11:19:42;6.40;;;3.90;;
64595;SDS011;51003;51.628;6.670;2024-01-16T11:22:08;9.13;;;3.87;;
64595;SDS011;51003;51.628;6.670;2024-01-16T11:24:34;6.47;;;3.73;;
64595;SDS011;51003;51.628;6.670;2024-01-16T11:27:00;5.83;;;3.90;;
64595;SDS011;51003;51.628;6.670;2024-01-16T11:31:54;10.70;;;5.10;;
64595;SDS011;51003;51.628;6.670;2024-01-16T11:37:11;6.63;;;4.53;;
64595;SDS011;51003;51.628;6.670;2024-01-16T11:39:37;10.43;;;4.10;;
64595;SDS011;51003;51.628;6.670;2024-01-16T11:42:03;6.43;;;4.20;;
64595;SDS011;51003;51.628;6.670;2024-01-16T11:44:45;6.27;;;3.60;;
64595;SDS011;51003;51.628;6.670;2024-01-16T11:47:20;7.23;;;4.57;;
64595;SDS011;51003;51.628;6.670;2024-01-16T11:49:48;9.63;;;4.20;;
64595;SDS011;51003;51.628;6.670;2024-01-16T11:52:15;7.20;;;4.00;;
64595;SDS011;51003;51.628;6.670;2024-01-16T11:55:51;10.13;;;3.83;;
64595;SDS011;51003;51.628;6.670;2024-01-16T12:01:05;10.83;;;5.00;;
64595;SDS011;51003;51.628;6.670;2024-01-16T12:03:32;9.20;;;5.60;;
64595;SDS011;51003;51.628;6.670;2024-01-16T12:05:58;15.97;;;9.10;;
64595;SDS011;51003;51.628;6.670;2024-01-16T12:08:24;13.37;;;7.50;;
64595;SDS011;51003;51.628;6.670;2024-01-16T12:10:50;10.00;;;6.07;;
64595;SDS011;51003;51.628;6.670;2024-01-16T12:13:15;15.37;;;8.70;;
64595;SDS011;51003;51.628;6.670;2024-01-16T12:15:41;9.23;;;5.30;;
64595;SDS011;51003;51.628;6.670;2024-01-16T12:18:07;8.00;;;3.97;;
64595;SDS011;51003;51.628;6.670;2024-01-16T12:20:34;10.60;;;5.90;;
64595;SDS011;51003;51.628;6.670;2024-01-16T12:23:02;7.40;;;5.00;;
64595;SDS011;51003;51.628;6.670;2024-01-16T12:25:35;10.03;;;5.10;;
64595;SDS011;51003;51.628;6.670;2024-01-16T12:28:05;6.33;;;4.03;;
64595;SDS011;51003;51.628;6.670;2024-01-16T12:36:02;8.63;;;4.30;;
64595;SDS011;51003;51.628;6.670;2024-01-16T12:38:35;10.30;;;5.17;;
64595;SDS011;51003;51.628;6.670;2024-01-16T12:41:02;9.60;;;4.63;;
64595;SDS011;51003;51.628;6.670;2024-01-16T12:43:31;9.90;;;4.20;;
64595;SDS011;51003;51.628;6.670;2024-01-16T12:45:58;7.53;;;5.03;;
64595;SDS011;51003;51.628;6.670;2024-01-16T12:48:27;7.30;;;4.80;;
64595;SDS011;51003;51.628;6.670;2024-01-16T12:50:59;6.37;;;4.17;;
64595;SDS011;51003;51.628;6.670;2024-01-16T12:53:27;9.07;;;5.40;;
64595;SDS011;51003;51.628;6.670;2024-01-16T12:55:59;9.00;;;5.37;;
64595;SDS011;51003;51.628;6.670;2024-01-16T12:58:25;8.70;;;4.60;;
64595;SDS011;51003;51.628;6.670;2024-01-16T13:04:04;8.07;;;4.70;;
64595;SDS011;51003;51.628;6.670;2024-01-16T13:06:30;8.47;;;5.30;;
64595;SDS011;51003;51.628;6.670;2024-01-16T13:09:03;6.07;;;4.27;;
64595;SDS011;51003;51.628;6.670;2024-01-16T13:14:23;10.33;;;5.50;;
64595;SDS011;51003;51.628;6.670;2024-01-16T13:16:49;22.17;;;11.03;;
64595;SDS011;51003;51.628;6.670;2024-01-16T13:19:16;9.10;;;4.97;;
64595;SDS011;51003;51.628;6.670;2024-01-16T13:21:44;7.40;;;4.80;;
64595;SDS011;51003;51.628;6.670;2024-01-16T13:24:10;6.60;;;5.07;;
64595;SDS011;51003;51.628;6.670;2024-01-16T13:26:36;13.73;;;7.40;;
64595;SDS011;51003;51.628;6.670;2024-01-16T13:29:02;12.10;;;5.20;;
64595;SDS011;51003;51.628;6.670;2024-01-16T13:31:28;5.53;;;4.30;;
64595;SDS011;51003;51.628;6.670;2024-01-16T13:33:55;9.47;;;4.93;;
64595;SDS011;51003;51.628;6.670;2024-01-16T13:36:21;10.47;;;5.17;;
64595;SDS011;51003;51.628;6.670;2024-01-16T13:38:47;7.20;;;4.60;;
64595;SDS011;51003;51.628;6.670;2024-01-16T13:41:14;8.07;;;5.30;;
64595;SDS011;51003;51.628;6.670;2024-01-16T13:43:39;10.37;;;5.60;;
64595;SDS011;51003;51.628;6.670;2024-01-16T13:46:05;8.70;;;4.90;;
64595;SDS011;51003;51.628;6.670;2024-01-16T13:48:30;10.17;;;5.53;;
64595;SDS011;51003;51.628;6.670;2024-01-16T13:50:56;10.47;;;5.10;;
64595;SDS011;51003;51.628;6.670;2024-01-16T13:53:22;8.93;;;4.77;;
64595;SDS011;51003;51.628;6.670;2024-01-16T13:55:48;9.90;;;4.80;;
64595;SDS011;51003;51.628;6.670;2024-01-16T13:58:14;11.37;;;4.60;;
64595;SDS011;51003;51.628;6.670;2024-01-16T14:00:39;8.00;;;4.93;;
64595;SDS011;51003;51.628;6.670;2024-01-16T14:03:05;8.53;;;4.70;;
64595;SDS011;51003;51.628;6.670;2024-01-16T14:05:31;6.20;;;4.63;;
64595;SDS011;51003;51.628;6.670;2024-01-16T14:07:57;6.20;;;4.37;;
64595;SDS011;51003;51.628;6.670;2024-01-16T14:10:23;11.70;;;5.43;;
64595;SDS011;51003;51.628;6.670;2024-01-16T14:12:50;8.60;;;4.90;;
64595;SDS011;51003;51.628;6.670;2024-01-16T14:15:16;7.60;;;5.10;;
64595;SDS011;51003;51.628;6.670;2024-01-16T14:17:49;9.13;;;5.10;;
64595;SDS011;51003;51.628;6.670;2024-01-16T14:20:21;14.13;;;5.10;;
64595;SDS011;51003;51.628;6.670;2024-01-16T14:22:51;7.63;;;5.27;;
64595;SDS011;51003;51.628;6.670;2024-01-16T14:25:17;12.50;;;5.80;;
64595;SDS011;51003;51.628;6.670;2024-01-16T14:27:44;7.37;;;4.90;;
64595;SDS011;51003;51.628;6.670;2024-01-16T14:30:33;11.13;;;6.30;;
64595;SDS011;51003;51.628;6.670;2024-01-16T14:32:59;8.30;;;5.80;;
64595;SDS011;51003;51.628;6.670;2024-01-16T14:35:26;11.73;;;5.50;;
64595;SDS011;51003;51.628;6.670;2024-01-16T14:37:52;7.90;;;5.13;;
64595;SDS011;51003;51.628;6.670;2024-01-16T14:40:18;8.20;;;5.23;;
64595;SDS011;51003;51.628;6.670;2024-01-16T14:42:51;11.80;;;5.10;;
64595;SDS011;51003;51.628;6.670;2024-01-16T14:45:21;13.40;;;5.30;;
64595;SDS011;51003;51.628;6.670;2024-01-16T14:47:47;12.10;;;5.33;;
64595;SDS011;51003;51.628;6.670;2024-01-16T14:50:15;12.03;;;7.40;;
64595;SDS011;51003;51.628;6.670;2024-01-16T14:52:49;7.93;;;4.70;;
64595;SDS011;51003;51.628;6.670;2024-01-16T14:55:15;9.10;;;4.87;;
64595;SDS011;51003;51.628;6.670;2024-01-16T14:57:42;7.97;;;5.20;;
64595;SDS011;51003;51.628;6.670;2024-01-16T15:00:09;10.43;;;7.30;;
64595;SDS011;51003;51.628;6.670;2024-01-16T15:02:51;10.33;;;6.53;;
64595;SDS011;51003;51.628;6.670;2024-01-16T15:05:16;9.83;;;5.87;;
64595;SDS011;51003;51.628;6.670;2024-01-16T15:07:44;16.63;;;8.30;;
64595;SDS011;51003;51.628;6.670;2024-01-16T15:10:10;11.10;;;7.50;;
64595;SDS011;51003;51.628;6.670;2024-01-16T15:12:39;7.80;;;4.73;;
64595;SDS011;51003;51.628;6.670;2024-01-16T15:15:09;7.83;;;5.27;;
64595;SDS011;51003;51.628;6.670;2024-01-16T15:17:37;16.17;;;7.70;;
64595;SDS011;51003;51.628;6.670;2024-01-16T15:20:02;21.40;;;10.47;;
64595;SDS011;51003;51.628;6.670;2024-01-16T15:22:43;10.17;;;6.47;;
64595;SDS011;51003;51.628;6.670;2024-01-16T15:25:09;11.50;;;6.07;;
64595;SDS011;51003;51.628;6.670;2024-01-16T15:27:36;22.13;;;12.70;;
64595;SDS011;51003;51.628;6.670;2024-01-16T15:30:03;16.93;;;9.30;;
64595;SDS011;51003;51.628;6.670;2024-01-16T15:32:29;18.90;;;9.20;;
64595;SDS011;51003;51.628;6.670;2024-01-16T15:34:56;15.30;;;7.90;;
64595;SDS011;51003;51.628;6.670;2024-01-16T15:37:22;13.07;;;5.60;;
64595;SDS011;51003;51.628;6.670;2024-01-16T15:39:47;13.30;;;8.50;;
64595;SDS011;51003;51.628;6.670;2024-01-16T15:42:13;18.37;;;8.50;;
64595;SDS011;51003;51.628;6.670;2024-01-16T15:44:38;14.73;;;7.13;;
64595;SDS011;51003;51.628;6.670;2024-01-16T15:47:04;10.60;;;7.10;;
64595;SDS011;51003;51.628;6.670;2024-01-16T15:49:30;9.90;;;5.60;;
64595;SDS011;51003;51.628;6.670;2024-01-16T15:51:56;11.40;;;5.07;;
64595;SDS011;51003;51.628;6.670;2024-01-16T15:54:26;15.53;;;7.10;;
64595;SDS011;51003;51.628;6.670;2024-01-16T15:56:52;24.07;;;11.93;;
64595;SDS011;51003;51.628;6.670;2024-01-16T15:59:19;9.52;;;6.55;;
64595;SDS011;51003;51.628;6.670;2024-01-16T16:01:45;9.57;;;6.27;;
64595;SDS011;51003;51.628;6.670;2024-01-16T16:04:11;15.27;;;7.70;;
64595;SDS011;51003;51.628;6.670;2024-01-16T16:06:37;9.90;;;5.83;;
64595;SDS011;51003;51.628;6.670;2024-01-16T16:09:06;13.35;;;6.53;;
64595;SDS011;51003;51.628;6.670;2024-01-16T16:11:36;13.50;;;7.63;;
64595;SDS011;51003;51.628;6.670;2024-01-16T16:14:03;31.90;;;15.40;;
64595;SDS011;51003;51.628;6.670;2024-01-16T16:16:30;29.50;;;13.50;;
64595;SDS011;51003;51.628;6.670;2024-01-16T16:18:56;26.00;;;11.65;;
64595;SDS011;51003;51.628;6.670;2024-01-16T16:21:21;19.93;;;9.00;;
64595;SDS011;51003;51.628;6.670;2024-01-16T16:23:47;17.07;;;7.60;;
64595;SDS011;51003;51.628;6.670;2024-01-16T16:26:13;13.87;;;6.90;;
64595;SDS011;51003;51.628;6.670;2024-01-16T16:28:54;11.82;;;6.03;;
64595;SDS011;51003;51.628;6.670;2024-01-16T16:31:22;25.65;;;11.80;;
64595;SDS011;51003;51.628;6.670;2024-01-16T16:33:48;19.43;;;10.90;;
64595;SDS011;51003;51.628;6.670;2024-01-16T16:36:13;16.93;;;8.50;;
64595;SDS011;51003;51.628;6.670;2024-01-16T16:38:39;22.93;;;11.63;;
64595;SDS011;51003;51.628;6.670;2024-01-16T16:41:06;20.70;;;11.30;;
64595;SDS011;51003;51.628;6.670;2024-01-16T16:43:31;42.20;;;18.80;;
64595;SDS011;51003;51.628;6.670;2024-01-16T16:45:57;55.20;;;25.57;;
64595;SDS011;51003;51.628;6.670;2024-01-16T16:48:23;51.45;;;20.08;;
64595;SDS011;51003;51.628;6.670;2024-01-16T16:50:50;30.65;;;13.10;;
64595;SDS011;51003;51.628;6.670;2024-01-16T16:53:16;73.27;;;30.97;;
64595;SDS011;51003;51.628;6.670;2024-01-16T16:55:42;41.13;;;17.30;;
64595;SDS011;51003;51.628;6.670;2024-01-16T16:58:08;23.33;;;11.63;;
64595;SDS011;51003;51.628;6.670;2024-01-16T17:00:35;32.78;;;16.60;;
64595;SDS011;51003;51.628;6.670;2024-01-16T17:03:00;29.33;;;13.17;;
64595;SDS011;51003;51.628;6.670;2024-01-16T17:05:29;61.75;;;26.60;;
64595;SDS011;51003;51.628;6.670;2024-01-16T17:07:54;47.93;;;21.67;;
64595;SDS011;51003;51.628;6.670;2024-01-16T17:10:20;18.40;;;9.70;;
64595;SDS011;51003;51.628;6.670;2024-01-16T17:12:45;36.77;;;15.27;;
64595;SDS011;51003;51.628;6.670;2024-01-16T17:15:11;29.63;;;13.00;;
64595;SDS011;51003;51.628;6.670;2024-01-16T17:17:37;38.07;;;18.30;;
64595;SDS011;51003;51.628;6.670;2024-01-16T17:20:03;41.60;;;20.60;;
64595;SDS011;51003;51.628;6.670;2024-01-16T17:22:30;18.25;;;8.50;;
64595;SDS011;51003;51.628;6.670;2024-01-16T17:24:55;31.10;;;14.60;;
64595;SDS011;51003;51.628;6.670;2024-01-16T17:27:21;24.47;;;10.13;;
64595;SDS011;51003;51.628;6.670;2024-01-16T17:29:47;30.25;;;13.35;;
64595;SDS011;51003;51.628;6.670;2024-01-16T17:32:13;38.23;;;18.27;;
64595;SDS011;51003;51.628;6.670;2024-01-16T17:34:39;22.67;;;11.10;;
64595;SDS011;51003;51.628;6.670;2024-01-16T17:37:05;23.83;;;10.60;;
64595;SDS011;51003;51.628;6.670;2024-01-16T17:39:32;24.92;;;11.25;;
64595;SDS011;51003;51.628;6.670;2024-01-16T17:41:58;17.40;;;7.57;;
64595;SDS011;51003;51.628;6.670;2024-01-16T17:44:24;34.00;;;15.67;;
64595;SDS011;51003;51.628;6.670;2024-01-16T17:46:49;12.67;;;6.40;;
64595;SDS011;51003;51.628;6.670;2024-01-16T17:49:16;19.27;;;9.85;;
64595;SDS011;51003;51.628;6.670;2024-01-16T17:51:44;9.47;;;4.87;;
64595;SDS011;51003;51.628;6.670;2024-01-16T17:54:11;16.10;;;7.82;;
64595;SDS011;51003;51.628;6.670;2024-01-16T17:56:38;9.02;;;6.28;;
64595;SDS011;51003;51.628;6.670;2024-01-16T17:59:04;13.77;;;7.37;;
64595;SDS011;51003;51.628;6.670;2024-01-16T18:01:30;24.00;;;10.20;;
64595;SDS011;51003;51.628;6.670;2024-01-16T18:03:55;27.23;;;13.40;;
64595;SDS011;51003;51.628;6.670;2024-01-16T18:06:22;24.63;;;9.80;;
64595;SDS011;51003;51.628;6.670;2024-01-16T18:08:47;21.63;;;11.23;;
64595;SDS011;51003;51.628;6.670;2024-01-16T18:11:14;19.87;;;9.50;;
64595;SDS011;51003;51.628;6.670;2024-01-16T18:13:39;32.87;;;14.00;;
64595;SDS011;51003;51.628;6.670;2024-01-16T18:16:06;31.65;;;15.60;;
64595;SDS011;51003;51.628;6.670;2024-01-16T18:18:32;20.63;;;10.17;;
64595;SDS011;51003;51.628;6.670;2024-01-16T18:20:58;13.18;;;7.40;;
64595;SDS011;51003;51.628;6.670;2024-01-16T18:23:24;9.33;;;5.10;;
64595;SDS011;51003;51.628;6.670;2024-01-16T18:25:51;18.17;;;7.53;;
64595;SDS011;51003;51.628;6.670;2024-01-16T18:28:16;13.60;;;6.70;;
64595;SDS011;51003;51.628;6.670;2024-01-16T18:30:42;9.77;;;5.47;;
64595;SDS011;51003;51.628;6.670;2024-01-16T18:33:08;18.40;;;4.90;;
64595;SDS011;51003;51.628;6.670;2024-01-16T18:35:34;12.90;;;6.03;;
64595;SDS011;51003;51.628;6.670;2024-01-16T18:37:59;18.57;;;9.93;;
64595;SDS011;51003;51.628;6.670;2024-01-16T18:40:25;13.17;;;6.70;;
64595;SDS011;51003;51.628;6.670;2024-01-16T18:42:51;15.98;;;7.30;;
64595;SDS011;51003;51.628;6.670;2024-01-16T18:45:16;13.23;;;5.23;;
64595;SDS011;51003;51.628;6.670;2024-01-16T18:47:43;12.57;;;6.55;;
64595;SDS011;51003;51.628;6.670;2024-01-16T18:50:09;10.02;;;6.03;;
64595;SDS011;51003;51.628;6.670;2024-01-16T18:52:37;19.67;;;9.55;;
64595;SDS011;51003;51.628;6.670;2024-01-16T18:55:05;53.65;;;20.45;;
64595;SDS011;51003;51.628;6.670;2024-01-16T18:57:35;30.15;;;12.85;;
64595;SDS011;51003;51.628;6.670;2024-01-16T19:00:02;40.88;;;17.50;;
64595;SDS011;51003;51.628;6.670;2024-01-16T19:02:30;18.90;;;8.23;;
64595;SDS011;51003;51.628;6.670;2024-01-16T19:04:57;23.10;;;7.95;;
64595;SDS011;51003;51.628;6.670;2024-01-16T19:07:22;16.00;;;8.30;;
64595;SDS011;51003;51.628;6.670;2024-01-16T19:09:48;43.80;;;19.40;;
64595;SDS011;51003;51.628;6.670;2024-01-16T19:12:14;28.07;;;13.47;;
64595;SDS011;51003;51.628;6.670;2024-01-16T19:14:39;15.80;;;7.83;;
64595;SDS011;51003;51.628;6.670;2024-01-16T19:17:05;24.03;;;12.07;;
64595;SDS011;51003;51.628;6.670;2024-01-16T19:19:31;28.10;;;15.82;;
64595;SDS011;51003;51.628;6.670;2024-01-16T19:21:57;24.23;;;13.03;;
64595;SDS011;51003;51.628;6.670;2024-01-16T19:24:23;17.73;;;9.83;;
64595;SDS011;51003;51.628;6.670;2024-01-16T19:26:49;21.90;;;9.15;;
64595;SDS011;51003;51.628;6.670;2024-01-16T19:29:14;13.10;;;7.90;;
64595;SDS011;51003;51.628;6.670;2024-01-16T19:31:43;16.40;;;9.93;;
64595;SDS011;51003;51.628;6.670;2024-01-16T19:34:09;14.02;;;8.65;;
64595;SDS011;51003;51.628;6.670;2024-01-16T19:36:37;19.52;;;9.15;;
64595;SDS011;51003;51.628;6.670;2024-01-16T19:39:02;15.40;;;8.00;;
64595;SDS011;51003;51.628;6.670;2024-01-16T19:41:30;20.77;;;10.27;;
64595;SDS011;51003;51.628;6.670;2024-01-16T19:43:57;15.63;;;6.15;;
64595;SDS011;51003;51.628;6.670;2024-01-16T19:46:22;14.00;;;6.50;;
64595;SDS011;51003;51.628;6.670;2024-01-16T19:48:48;10.77;;;6.10;;
64595;SDS011;51003;51.628;6.670;2024-01-16T19:51:14;12.10;;;6.50;;
64595;SDS011;51003;51.628;6.670;2024-01-16T19:53:40;11.33;;;6.67;;
64595;SDS011;51003;51.628;6.670;2024-01-16T19:56:06;10.45;;;6.25;;
64595;SDS011;51003;51.628;6.670;2024-01-16T19:58:32;11.53;;;6.50;;
64595;SDS011;51003;51.628;6.670;2024-01-16T20:01:00;11.90;;;7.10;;
64595;SDS011;51003;51.628;6.670;2024-01-16T20:03:27;26.23;;;13.63;;
64595;SDS011;51003;51.628;6.670;2024-01-16T20:05:56;19.98;;;9.23;;
64595;SDS011;51003;51.628;6.670;2024-01-16T20:08:21;17.30;;;8.07;;
64595;SDS011;51003;51.628;6.670;2024-01-16T20:10:47;12.80;;;7.83;;
64595;SDS011;51003;51.628;6.670;2024-01-16T20:13:12;13.83;;;6.67;;
64595;SDS011;51003;51.628;6.670;2024-01-16T20:15:45;16.35;;;8.25;;
64595;SDS011;51003;51.628;6.670;2024-01-16T20:18:19;14.75;;;7.53;;
64595;SDS011;51003;51.628;6.670;2024-01-16T20:20:48;14.77;;;7.35;;
64595;SDS011;51003;51.628;6.670;2024-01-16T20:23:16;15.65;;;7.55;;
64595;SDS011;51003;51.628;6.670;2024-01-16T20:25:42;17.55;;;7.82;;
64595;SDS011;51003;51.628;6.670;2024-01-16T20:28:10;18.95;;;9.90;;
64595;SDS011;51003;51.628;6.670;2024-01-16T20:30:36;15.48;;;8.25;;
64595;SDS011;51003;51.628;6.670;2024-01-16T20:33:04;23.20;;;11.25;;
64595;SDS011;51003;51.628;6.670;2024-01-16T20:35:30;33.80;;;16.10;;
64595;SDS011;51003;51.628;6.670;2024-01-16T20:37:56;34.40;;;11.63;;
64595;SDS011;51003;51.628;6.670;2024-01-16T20:40:21;49.73;;;16.10;;
64595;SDS011;51003;51.628;6.670;2024-01-16T20:43:07;45.55;;;17.85;;
64595;SDS011;51003;51.628;6.670;2024-01-16T20:45:33;42.10;;;18.80;;
64595;SDS011;51003;51.628;6.670;2024-01-16T20:48:01;22.37;;;11.70;;
64595;SDS011;51003;51.628;6.670;2024-01-16T20:50:28;20.50;;;10.00;;
64595;SDS011;51003;51.628;6.670;2024-01-16T20:52:54;22.13;;;11.68;;
64595;SDS011;51003;51.628;6.670;2024-01-16T20:55:20;19.08;;;11.02;;
64595;SDS011;51003;51.628;6.670;2024-01-16T20:57:46;18.70;;;8.73;;
64595;SDS011;51003;51.628;6.670;2024-01-16T21:00:15;17.85;;;9.75;;
64595;SDS011;51003;51.628;6.670;2024-01-16T21:02:41;37.15;;;18.52;;
64595;SDS011;51003;51.628;6.670;2024-01-16T21:05:07;35.03;;;20.27;;
64595;SDS011;51003;51.628;6.670;2024-01-16T21:07:33;18.37;;;9.47;;
64595;SDS011;51003;51.628;6.670;2024-01-16T21:09:58;25.93;;;12.00;;
64595;SDS011;51003;51.628;6.670;2024-01-16T21:12:23;18.47;;;8.70;;
64595;SDS011;51003;51.628;6.670;2024-01-16T21:14:49;16.63;;;9.17;;
64595;SDS011;51003;51.628;6.670;2024-01-16T21:17:22;24.73;;;11.33;;
64595;SDS011;51003;51.628;6.670;2024-01-16T21:19:49;24.80;;;12.88;;
